createdAt,value
2018-08-18T00:01:01.721Z,2.37
2018-08-18T00:05:56.644Z,3.33
2018-08-18T00:10:51.541Z,3.90
2018-08-18T00:15:46.445Z,2.43
2018-08-18T00:20:41.412Z,3.97
2018-08-18T00:25:36.308Z,2.47
2018-08-18T00:30:31.236Z,2.30
2018-08-18T00:35:26.212Z,2.00
2018-08-18T00:40:21.029Z,2.27
2018-08-18T00:45:15.838Z,2.50
2018-08-18T00:50:11.518Z,2.80
2018-08-18T00:55:06.494Z,2.70
2018-08-18T01:00:01.381Z,3.20
2018-08-18T01:05:01.684Z,3.80
2018-08-18T01:09:56.845Z,3.10
2018-08-18T01:14:51.932Z,2.70
2018-08-18T01:19:47.209Z,2.83
2018-08-18T01:24:42.011Z,2.70
2018-08-18T01:29:36.929Z,2.93
2018-08-18T01:34:31.696Z,3.73
2018-08-18T01:39:26.559Z,3.17
2018-08-18T01:44:23.892Z,3.70
2018-08-18T01:49:29.083Z,3.57
2018-08-18T01:54:23.893Z,2.83
2018-08-18T01:59:19.635Z,2.80
2018-08-18T02:04:17.094Z,2.70
2018-08-18T02:09:11.839Z,3.60
2018-08-18T02:14:07.261Z,2.70
2018-08-18T02:19:02.260Z,4.67
2018-08-18T02:23:57.920Z,2.87
2018-08-18T02:28:52.747Z,3.27
2018-08-18T02:33:47.724Z,3.23
2018-08-18T02:38:46.626Z,3.70
2018-08-18T02:43:41.418Z,4.57
2018-08-18T02:48:36.159Z,3.20
2018-08-18T02:53:30.951Z,4.23
2018-08-18T02:58:25.883Z,5.23
2018-08-18T03:03:20.664Z,3.90
2018-08-18T03:08:15.391Z,4.30
2018-08-18T03:13:10.223Z,5.17
2018-08-18T03:18:05.132Z,6.83
2018-08-18T03:22:59.999Z,3.47
2018-08-18T03:27:54.773Z,4.40
2018-08-18T03:32:49.561Z,7.10
2018-08-18T03:37:44.247Z,4.17
2018-08-18T03:42:42.853Z,4.83
2018-08-18T03:47:37.564Z,5.30
2018-08-18T03:52:32.416Z,4.97
2018-08-18T03:57:46.081Z,5.23
2018-08-18T04:02:41.113Z,5.47
2018-08-18T04:07:39.912Z,7.37
2018-08-18T04:12:34.560Z,6.73
2018-08-18T04:17:32.386Z,6.93
2018-08-18T04:22:27.170Z,6.23
2018-08-18T04:27:39.766Z,6.17
2018-08-18T04:32:55.627Z,7.20
2018-08-18T04:37:51.410Z,6.87
2018-08-18T04:42:46.288Z,6.83
2018-08-18T04:47:43.534Z,8.10
2018-08-18T04:52:38.356Z,7.40
2018-08-18T04:57:35.492Z,8.63
2018-08-18T05:02:30.189Z,8.87
2018-08-18T05:07:25.116Z,6.13
2018-08-18T05:12:20.027Z,6.33
2018-08-18T05:17:14.922Z,5.53
2018-08-18T05:22:09.775Z,6.53
2018-08-18T05:27:14.488Z,5.93
2018-08-18T05:32:10.756Z,4.87
2018-08-18T05:37:05.975Z,6.20
2018-08-18T05:42:02.278Z,6.57
2018-08-18T05:46:57.808Z,6.80
2018-08-18T05:51:54.073Z,8.07
2018-08-18T05:56:54.611Z,6.63
2018-08-18T06:01:49.786Z,5.63
2018-08-18T06:06:45.671Z,5.70
2018-08-18T06:24:36.223Z,6.17
2018-08-18T06:29:31.892Z,5.37
2018-08-18T06:34:28.425Z,5.67
2018-08-18T06:39:23.507Z,6.53
2018-08-18T06:44:22.319Z,5.60
2018-08-18T06:49:17.220Z,5.80
2018-08-18T06:54:12.325Z,7.47
2018-08-18T06:59:09.990Z,6.77
2018-08-18T07:04:05.007Z,6.80
2018-08-18T07:08:59.899Z,5.37
2018-08-18T07:13:54.736Z,6.33
2018-08-18T07:18:49.525Z,6.10
2018-08-18T07:23:44.447Z,6.50
2018-08-18T07:28:39.297Z,6.10
2018-08-18T07:33:34.025Z,7.07
2018-08-18T07:38:28.803Z,6.93
2018-08-18T07:43:30.225Z,6.00
2018-08-18T07:48:24.963Z,5.30
2018-08-18T07:53:19.774Z,5.33
2018-08-18T07:58:19.084Z,6.00
2018-08-18T08:03:15.175Z,6.03
2018-08-18T08:08:10.399Z,7.33
2018-08-18T08:13:05.143Z,8.50
2018-08-18T08:17:59.944Z,7.23
2018-08-18T08:22:55.759Z,6.73
2018-08-18T08:27:52.365Z,5.77
2018-08-18T08:32:47.763Z,5.60
2018-08-18T08:37:43.070Z,6.27
2018-08-18T08:42:38.541Z,7.53
2018-08-18T08:47:33.177Z,6.47
2018-08-18T08:52:33.377Z,7.92
2018-08-18T08:57:28.125Z,6.17
2018-08-18T09:02:22.718Z,6.60
2018-08-18T09:07:17.875Z,4.87
2018-08-18T09:12:12.615Z,5.12
2018-08-18T09:17:07.708Z,4.78
2018-08-18T09:22:04.831Z,6.58
2018-08-18T09:27:03.571Z,5.50
2018-08-18T09:31:59.310Z,6.03
2018-08-18T09:36:54.262Z,7.28
2018-08-18T09:41:50.037Z,6.25
2018-08-18T09:46:45.504Z,5.78
2018-08-18T09:51:40.460Z,5.97
2018-08-18T09:56:35.179Z,5.12
2018-08-18T10:01:29.852Z,5.30
2018-08-18T10:06:24.535Z,6.00
2018-08-18T10:11:19.156Z,5.50
2018-08-18T10:16:13.801Z,6.35
2018-08-18T10:21:08.511Z,5.45
2018-08-18T10:26:03.092Z,5.28
2018-08-18T10:30:57.748Z,5.47
2018-08-18T10:35:52.320Z,7.00
2018-08-18T10:40:46.917Z,5.58
2018-08-18T10:45:41.631Z,5.78
2018-08-18T10:51:53.595Z,6.42
2018-08-18T10:56:48.705Z,5.78
2018-08-18T11:02:03.737Z,5.80
2018-08-18T11:06:58.394Z,6.28
2018-08-18T11:11:53.128Z,7.40
2018-08-18T11:16:48.190Z,5.47
2018-08-18T11:21:42.864Z,6.30
2018-08-18T11:26:40.598Z,5.58
2018-08-18T11:31:35.506Z,5.65
2018-08-18T11:36:30.240Z,5.10
2018-08-18T11:41:25.300Z,6.20
2018-08-18T11:46:19.900Z,4.97
2018-08-18T11:51:14.598Z,5.00
2018-08-18T11:56:09.218Z,6.58
2018-08-18T12:01:03.876Z,4.60
2018-08-18T12:05:59.850Z,4.12
2018-08-18T12:10:56.369Z,3.95
2018-08-18T12:16:12.574Z,4.62
2018-08-18T12:21:07.343Z,4.65
2018-08-18T12:26:05.901Z,4.80
2018-08-18T12:31:00.723Z,4.55
2018-08-18T12:35:55.385Z,4.53
2018-08-18T12:40:50.235Z,4.40
2018-08-18T12:45:48.647Z,4.70
2018-08-18T12:50:43.265Z,4.72
2018-08-18T12:55:37.947Z,4.30
2018-08-18T13:00:32.540Z,4.28
2018-08-18T13:05:27.924Z,4.37
2018-08-18T13:10:30.084Z,5.08
2018-08-18T13:15:24.906Z,4.70
2018-08-18T13:20:24.146Z,5.05
2018-08-18T13:25:18.961Z,4.40
2018-08-18T13:30:13.539Z,4.53
2018-08-18T13:35:08.162Z,4.62
2018-08-18T13:40:02.817Z,4.60
2018-08-18T13:44:57.562Z,4.28
2018-08-18T13:49:59.302Z,4.80
2018-08-18T13:54:54.350Z,4.95
2018-08-18T13:59:49.439Z,6.95
2018-08-18T14:04:44.512Z,5.75
2018-08-18T14:09:41.713Z,5.08
2018-08-18T14:14:36.360Z,6.37
2018-08-18T14:19:33.934Z,5.10
2018-08-18T14:24:35.202Z,6.47
2018-08-18T14:29:31.752Z,5.08
2018-08-18T14:34:26.509Z,5.47
2018-08-18T14:39:37.852Z,4.87
2018-08-18T14:44:32.457Z,5.00
2018-08-18T14:49:27.123Z,5.40
2018-08-18T14:54:26.999Z,4.83
2018-08-18T14:59:25.871Z,5.37
2018-08-18T15:04:20.658Z,5.33
2018-08-18T15:09:31.344Z,6.12
2018-08-18T15:14:26.542Z,5.53
2018-08-18T15:19:21.144Z,5.67
2018-08-18T15:24:15.766Z,5.20
2018-08-18T15:29:14.402Z,5.12
2018-08-18T15:34:18.736Z,5.30
2018-08-18T15:39:13.442Z,5.17
2018-08-18T15:44:10.514Z,6.25
2018-08-18T15:49:05.171Z,5.60
2018-08-18T15:54:00.954Z,5.00
2018-08-18T16:11:50.063Z,5.50
2018-08-18T16:16:57.811Z,4.70
2018-08-18T16:21:52.471Z,5.10
2018-08-18T16:26:47.256Z,5.20
2018-08-18T16:31:41.932Z,5.55
2018-08-18T16:36:41.531Z,4.78
2018-08-18T16:41:36.159Z,5.33
2018-08-18T16:46:31.830Z,5.92
2018-08-18T16:51:26.569Z,5.85
2018-08-18T16:56:29.371Z,5.28
2018-08-18T17:01:24.183Z,4.42
2018-08-18T17:06:18.826Z,5.35
2018-08-18T17:16:22.109Z,5.92
2018-08-18T17:21:16.755Z,5.40
2018-08-18T17:26:11.514Z,5.55
2018-08-18T17:31:06.523Z,5.80
2018-08-18T17:41:42.018Z,6.00
2018-08-18T17:46:40.257Z,5.65
2018-08-18T17:51:35.838Z,5.12
2018-08-18T17:56:32.233Z,6.03
2018-08-18T18:01:27.107Z,6.95
2018-08-18T18:06:23.351Z,5.62
2018-08-18T18:11:18.044Z,6.05
2018-08-18T18:16:26.024Z,5.78
2018-08-18T18:21:20.683Z,6.17
2018-08-18T18:26:15.372Z,5.55
2018-08-18T18:31:09.987Z,6.28
2018-08-18T18:36:04.807Z,5.80
2018-08-18T18:40:59.844Z,7.45
2018-08-18T18:45:54.549Z,5.97
2018-08-18T18:50:49.788Z,5.35
2018-08-18T18:55:49.709Z,5.87
2018-08-18T19:00:54.878Z,5.95
2018-08-18T19:05:50.264Z,6.50
2018-08-18T19:10:44.915Z,5.40
2018-08-18T19:15:39.691Z,4.83
2018-08-18T19:20:34.332Z,5.00
2018-08-18T19:25:28.918Z,7.12
2018-08-18T19:30:23.589Z,6.05
2018-08-18T19:35:18.809Z,5.10
2018-08-18T19:40:13.403Z,5.28
2018-08-18T19:45:08.976Z,6.65
2018-08-18T19:50:03.900Z,5.87
2018-08-18T19:54:58.548Z,6.85
2018-08-18T20:00:08.138Z,6.85
2018-08-18T20:05:02.842Z,6.90
2018-08-18T20:09:57.519Z,6.08
2018-08-18T20:14:52.379Z,7.35
2018-08-18T20:19:47.042Z,7.80
2018-08-18T20:24:42.555Z,7.53
2018-08-18T20:29:37.264Z,7.37
2018-08-18T20:34:31.951Z,8.93
2018-08-18T20:39:29.615Z,8.00
2018-08-18T20:44:24.331Z,7.37
2018-08-18T20:49:19.448Z,7.40
2018-08-18T20:54:14.128Z,7.97
2018-08-18T20:59:08.795Z,7.87
2018-08-18T21:04:03.482Z,9.13
2018-08-18T21:08:58.094Z,8.73
2018-08-18T21:13:52.857Z,7.45
2018-08-18T21:18:47.463Z,7.75
2018-08-18T21:23:42.161Z,7.62
2018-08-18T21:28:36.799Z,7.78
2018-08-18T21:33:31.439Z,7.90
2018-08-18T21:38:26.120Z,8.70
2018-08-18T21:43:33.483Z,8.15
2018-08-18T21:48:46.325Z,7.83
2018-08-18T21:53:40.998Z,8.50
2018-08-18T21:58:35.672Z,7.83
2018-08-18T22:03:30.359Z,7.97
2018-08-18T22:08:24.926Z,10.43
2018-08-18T22:13:19.573Z,8.35
2018-08-18T22:18:14.561Z,9.27
2018-08-18T22:23:09.506Z,8.87
2018-08-18T22:28:04.268Z,10.33
2018-08-18T22:32:59.136Z,9.10
2018-08-18T22:37:53.864Z,10.43
2018-08-18T22:42:48.592Z,8.70
2018-08-18T22:47:44.346Z,8.37
2018-08-18T22:52:39.013Z,8.50
2018-08-18T22:57:34.019Z,8.45
2018-08-18T23:02:28.637Z,8.00
2018-08-18T23:07:27.811Z,8.97
2018-08-18T23:12:22.457Z,9.20
2018-08-18T23:17:17.334Z,8.63
2018-08-18T23:22:28.783Z,11.00
2018-08-18T23:27:23.429Z,10.07
2018-08-18T23:32:22.111Z,9.70
2018-08-18T23:37:20.805Z,9.40
2018-08-18T23:42:19.709Z,8.70
2018-08-18T23:47:14.798Z,9.83
2018-08-18T23:52:09.466Z,9.33
2018-08-18T23:57:04.218Z,9.57
